sensor_id;sensor_type;location;lat;lon;timestamp;pressure;altitude;pressure_sealevel;temperature;humidity
19594;BME280;9944;48.240;16.478;2023-12-04T00:01:43;100629.63;;;-5.55;72.75
19594;BME280;9944;48.240;16.478;2023-12-04T00:05:48;100632.09;;;-5.56;72.63
19594;BME280;9944;48.240;16.478;2023-12-04T00:09:51;100626.94;;;-5.56;73.10
19594;BME280;9944;48.240;16.478;2023-12-04T00:13:55;100627.50;;;-5.61;72.57
19594;BME280;9944;48.240;16.478;2023-12-04T00:17:58;100634.97;;;-5.64;72.93
19594;BME280;9944;48.240;16.478;2023-12-04T00:22:03;100627.03;;;-5.67;72.61
19594;BME280;9944;48.240;16.478;2023-12-04T00:26:06;100625.16;;;-5.69;72.83
19594;BME280;9944;48.240;16.478;2023-12-04T00:30:11;100634.19;;;-5.74;72.48
19594;BME280;9944;48.240;16.478;2023-12-04T00:34:14;100637.63;;;-5.86;71.84
19594;BME280;9944;48.240;16.478;2023-12-04T00:38:18;100634.25;;;-5.97;71.44
19594;BME280;9944;48.240;16.478;2023-12-04T00:42:21;100627.28;;;-6.09;71.23
19594;BME280;9944;48.240;16.478;2023-12-04T00:46:25;100628.13;;;-6.21;70.91
19594;BME280;9944;48.240;16.478;2023-12-04T00:50:28;100632.56;;;-6.30;70.61
19594;BME280;9944;48.240;16.478;2023-12-04T00:54:33;100645.72;;;-6.37;70.57
19594;BME280;9944;48.240;16.478;2023-12-04T00:58:36;100641.91;;;-6.42;70.59
19594;BME280;9944;48.240;16.478;2023-12-04T01:02:39;100651.69;;;-6.48;70.53
19594;BME280;9944;48.240;16.478;2023-12-04T01:06:42;100641.06;;;-6.53;70.62
19594;BME280;9944;48.240;16.478;2023-12-04T01:10:47;100632.47;;;-6.54;70.43
19594;BME280;9944;48.240;16.478;2023-12-04T01:14:50;100634.25;;;-6.52;70.67
19594;BME280;9944;48.240;16.478;2023-12-04T01:18:54;100633.47;;;-6.51;70.73
19594;BME280;9944;48.240;16.478;2023-12-04T01:22:57;100627.56;;;-6.50;70.67
19594;BME280;9944;48.240;16.478;2023-12-04T01:27:02;100630.69;;;-6.55;70.40
19594;BME280;9944;48.240;16.478;2023-12-04T01:31:06;100637.91;;;-6.61;70.18
19594;BME280;9944;48.240;16.478;2023-12-04T01:35:09;100635.06;;;-6.64;69.92
19594;BME280;9944;48.240;16.478;2023-12-04T01:39:12;100635.63;;;-6.68;70.16
19594;BME280;9944;48.240;16.478;2023-12-04T01:43:18;100638.44;;;-6.65;70.35
19594;BME280;9944;48.240;16.478;2023-12-04T01:47:21;100639.44;;;-6.63;70.72
19594;BME280;9944;48.240;16.478;2023-12-04T01:51:26;100633.31;;;-6.65;70.54
19594;BME280;9944;48.240;16.478;2023-12-04T01:55:32;100638.44;;;-6.65;70.66
19594;BME280;9944;48.240;16.478;2023-12-04T01:59:37;100643.69;;;-6.63;70.81
19594;BME280;9944;48.240;16.478;2023-12-04T02:03:40;100640.47;;;-6.61;71.25
19594;BME280;9944;48.240;16.478;2023-12-04T02:07:43;100632.63;;;-6.62;70.97
19594;BME280;9944;48.240;16.478;2023-12-04T02:11:46;100635.06;;;-6.64;71.44
19594;BME280;9944;48.240;16.478;2023-12-04T02:15:53;100625.47;;;-6.66;71.16
19594;BME280;9944;48.240;16.478;2023-12-04T02:19:57;100621.78;;;-6.70;71.21
19594;BME280;9944;48.240;16.478;2023-12-04T02:24:02;100628.47;;;-6.72;71.07
19594;BME280;9944;48.240;16.478;2023-12-04T02:28:06;100626.97;;;-6.80;70.65
19594;BME280;9944;48.240;16.478;2023-12-04T02:32:11;100629.03;;;-6.86;70.62
19594;BME280;9944;48.240;16.478;2023-12-04T02:36:17;100628.16;;;-6.87;70.70
19594;BME280;9944;48.240;16.478;2023-12-04T02:40:24;100622.63;;;-6.92;70.36
19594;BME280;9944;48.240;16.478;2023-12-04T02:44:28;100612.31;;;-7.03;69.88
19594;BME280;9944;48.240;16.478;2023-12-04T02:48:31;100616.28;;;-7.07;70.24
19594;BME280;9944;48.240;16.478;2023-12-04T02:52:34;100602.56;;;-7.07;70.21
19594;BME280;9944;48.240;16.478;2023-12-04T02:56:39;100605.00;;;-7.09;70.06
19594;BME280;9944;48.240;16.478;2023-12-04T03:00:42;100603.75;;;-7.14;69.96
19594;BME280;9944;48.240;16.478;2023-12-04T03:04:45;100607.75;;;-7.18;69.91
19594;BME280;9944;48.240;16.478;2023-12-04T03:08:48;100596.34;;;-7.21;69.62
19594;BME280;9944;48.240;16.478;2023-12-04T03:12:53;100601.88;;;-7.27;69.82
19594;BME280;9944;48.240;16.478;2023-12-04T03:16:56;100604.31;;;-7.28;70.48
19594;BME280;9944;48.240;16.478;2023-12-04T03:20:59;100608.56;;;-7.29;70.76
19594;BME280;9944;48.240;16.478;2023-12-04T03:25:02;100611.25;;;-7.27;70.78
19594;BME280;9944;48.240;16.478;2023-12-04T03:29:07;100604.31;;;-7.28;70.78
19594;BME280;9944;48.240;16.478;2023-12-04T03:33:10;100605.63;;;-7.34;70.69
19594;BME280;9944;48.240;16.478;2023-12-04T03:37:14;100596.66;;;-7.39;70.90
19594;BME280;9944;48.240;16.478;2023-12-04T03:41:17;100598.84;;;-7.43;70.95
19594;BME280;9944;48.240;16.478;2023-12-04T03:45:22;100606.19;;;-7.48;70.76
19594;BME280;9944;48.240;16.478;2023-12-04T03:49:25;100597.84;;;-7.56;70.76
19594;BME280;9944;48.240;16.478;2023-12-04T03:53:28;100594.16;;;-7.70;70.73
19594;BME280;9944;48.240;16.478;2023-12-04T03:57:31;100607.38;;;-7.75;70.80
19594;BME280;9944;48.240;16.478;2023-12-04T04:01:36;100593.16;;;-7.82;70.62
19594;BME280;9944;48.240;16.478;2023-12-04T04:05:39;100590.88;;;-7.89;70.52
19594;BME280;9944;48.240;16.478;2023-12-04T04:09:42;100585.16;;;-7.97;70.71
19594;BME280;9944;48.240;16.478;2023-12-04T04:13:45;100586.59;;;-8.00;70.63
19594;BME280;9944;48.240;16.478;2023-12-04T04:17:50;100581.94;;;-8.04;70.70
19594;BME280;9944;48.240;16.478;2023-12-04T04:21:53;100589.16;;;-8.11;70.43
19594;BME280;9944;48.240;16.478;2023-12-04T04:25:56;100588.00;;;-8.14;70.74
19594;BME280;9944;48.240;16.478;2023-12-04T04:30:00;100585.44;;;-8.25;70.44
19594;BME280;9944;48.240;16.478;2023-12-04T04:34:05;100584.16;;;-8.30;70.63
19594;BME280;9944;48.240;16.478;2023-12-04T04:38:08;100578.91;;;-8.31;70.60
19594;BME280;9944;48.240;16.478;2023-12-04T04:42:12;100569.28;;;-8.34;70.38
19594;BME280;9944;48.240;16.478;2023-12-04T04:46:15;100554.56;;;-8.36;70.41
19594;BME280;9944;48.240;16.478;2023-12-04T04:50:19;100559.56;;;-8.38;70.42
19594;BME280;9944;48.240;16.478;2023-12-04T04:54:22;100568.13;;;-8.37;70.51
19594;BME280;9944;48.240;16.478;2023-12-04T04:58:26;100573.25;;;-8.37;70.60
19594;BME280;9944;48.240;16.478;2023-12-04T05:02:29;100571.47;;;-8.38;70.23
19594;BME280;9944;48.240;16.478;2023-12-04T05:06:34;100573.50;;;-8.34;70.78
19594;BME280;9944;48.240;16.478;2023-12-04T05:10:38;100567.13;;;-8.29;71.02
19594;BME280;9944;48.240;16.478;2023-12-04T05:14:41;100567.38;;;-8.26;71.53
19594;BME280;9944;48.240;16.478;2023-12-04T05:18:44;100564.03;;;-8.25;71.28
19594;BME280;9944;48.240;16.478;2023-12-04T05:22:49;100565.19;;;-8.21;71.63
19594;BME280;9944;48.240;16.478;2023-12-04T05:26:52;100574.66;;;-8.20;71.62
19594;BME280;9944;48.240;16.478;2023-12-04T05:30:55;100564.94;;;-8.25;70.87
19594;BME280;9944;48.240;16.478;2023-12-04T05:34:58;100571.97;;;-8.32;70.91
19594;BME280;9944;48.240;16.478;2023-12-04T05:39:03;100552.16;;;-8.35;70.92
19594;BME280;9944;48.240;16.478;2023-12-04T05:43:06;100553.03;;;-8.34;71.07
19594;BME280;9944;48.240;16.478;2023-12-04T05:47:09;100546.63;;;-8.39;71.25
19594;BME280;9944;48.240;16.478;2023-12-04T05:51:12;100548.56;;;-8.37;71.63
19594;BME280;9944;48.240;16.478;2023-12-04T05:55:17;100543.81;;;-8.32;71.79
19594;BME280;9944;48.240;16.478;2023-12-04T05:59:22;100533.69;;;-8.31;71.64
19594;BME280;9944;48.240;16.478;2023-12-04T06:03:26;100532.28;;;-8.37;71.98
19594;BME280;9944;48.240;16.478;2023-12-04T06:07:29;100526.28;;;-8.38;71.77
19594;BME280;9944;48.240;16.478;2023-12-04T06:11:33;100523.59;;;-8.39;71.98
19594;BME280;9944;48.240;16.478;2023-12-04T06:15:36;100526.16;;;-8.50;72.01
19594;BME280;9944;48.240;16.478;2023-12-04T06:19:40;100520.75;;;-8.53;71.86
19594;BME280;9944;48.240;16.478;2023-12-04T06:23:44;100519.34;;;-8.49;72.06
19594;BME280;9944;48.240;16.478;2023-12-04T06:27:49;100517.31;;;-8.53;71.95
19594;BME280;9944;48.240;16.478;2023-12-04T06:31:53;100532.53;;;-8.55;72.32
19594;BME280;9944;48.240;16.478;2023-12-04T06:35:57;100542.78;;;-8.55;72.21
19594;BME280;9944;48.240;16.478;2023-12-04T06:40:01;100538.59;;;-8.54;72.11
19594;BME280;9944;48.240;16.478;2023-12-04T06:44:07;100544.59;;;-8.54;72.29
19594;BME280;9944;48.240;16.478;2023-12-04T06:48:13;100547.28;;;-8.52;72.00
19594;BME280;9944;48.240;16.478;2023-12-04T06:52:16;100542.16;;;-8.52;72.08
19594;BME280;9944;48.240;16.478;2023-12-04T06:56:19;100530.13;;;-8.53;71.96
19594;BME280;9944;48.240;16.478;2023-12-04T07:00:24;100539.19;;;-8.57;71.82
19594;BME280;9944;48.240;16.478;2023-12-04T07:04:27;100544.47;;;-8.55;71.87
19594;BME280;9944;48.240;16.478;2023-12-04T07:08:31;100536.78;;;-8.55;72.00
19594;BME280;9944;48.240;16.478;2023-12-04T07:12:34;100526.66;;;-8.54;71.94
19594;BME280;9944;48.240;16.478;2023-12-04T07:16:42;100523.59;;;-8.50;71.91
19594;BME280;9944;48.240;16.478;2023-12-04T07:20:46;100522.03;;;-8.48;71.99
19594;BME280;9944;48.240;16.478;2023-12-04T07:24:49;100505.06;;;-8.47;71.94
19594;BME280;9944;48.240;16.478;2023-12-04T07:28:52;100504.13;;;-8.48;71.92
19594;BME280;9944;48.240;16.478;2023-12-04T07:32:57;100497.50;;;-8.46;71.96
19594;BME280;9944;48.240;16.478;2023-12-04T07:37:00;100487.88;;;-8.38;72.30
19594;BME280;9944;48.240;16.478;2023-12-04T07:41:04;100483.16;;;-8.33;72.46
19594;BME280;9944;48.240;16.478;2023-12-04T07:45:08;100487.00;;;-8.28;72.28
19594;BME280;9944;48.240;16.478;2023-12-04T07:49:13;100479.44;;;-8.27;72.36
19594;BME280;9944;48.240;16.478;2023-12-04T07:53:16;100476.22;;;-8.24;72.43
19594;BME280;9944;48.240;16.478;2023-12-04T07:57:20;100468.00;;;-8.20;72.45
19594;BME280;9944;48.240;16.478;2023-12-04T08:01:23;100464.81;;;-8.17;72.31
19594;BME280;9944;48.240;16.478;2023-12-04T08:05:28;100455.59;;;-8.15;72.67
19594;BME280;9944;48.240;16.478;2023-12-04T08:09:31;100458.53;;;-8.11;72.53
19594;BME280;9944;48.240;16.478;2023-12-04T08:13:34;100446.19;;;-8.04;72.69
19594;BME280;9944;48.240;16.478;2023-12-04T08:17:37;100450.91;;;-7.99;72.75
19594;BME280;9944;48.240;16.478;2023-12-04T08:21:42;100439.16;;;-7.97;72.95
19594;BME280;9944;48.240;16.478;2023-12-04T08:25:45;100441.81;;;-7.95;73.21
19594;BME280;9944;48.240;16.478;2023-12-04T08:29:48;100436.00;;;-7.93;73.36
19594;BME280;9944;48.240;16.478;2023-12-04T08:33:51;100437.16;;;-7.89;73.53
19594;BME280;9944;48.240;16.478;2023-12-04T08:37:56;100428.66;;;-7.78;73.76
19594;BME280;9944;48.240;16.478;2023-12-04T08:41:59;100430.81;;;-7.72;73.94
19594;BME280;9944;48.240;16.478;2023-12-04T08:46:12;100420.13;;;-7.67;74.04
19594;BME280;9944;48.240;16.478;2023-12-04T08:50:15;100413.72;;;-7.61;74.04
19594;BME280;9944;48.240;16.478;2023-12-04T08:54:20;100413.41;;;-7.54;74.30
19594;BME280;9944;48.240;16.478;2023-12-04T08:58:23;100410.34;;;-7.50;74.28
19594;BME280;9944;48.240;16.478;2023-12-04T09:02:26;100407.97;;;-7.47;74.48
19594;BME280;9944;48.240;16.478;2023-12-04T09:06:29;100394.88;;;-7.40;74.78
19594;BME280;9944;48.240;16.478;2023-12-04T09:10:37;100387.09;;;-7.30;74.79
19594;BME280;9944;48.240;16.478;2023-12-04T09:15:00;100376.00;;;-7.18;74.85
19594;BME280;9944;48.240;16.478;2023-12-04T09:19:06;100369.56;;;-7.13;74.70
19594;BME280;9944;48.240;16.478;2023-12-04T09:23:09;100364.88;;;-7.07;74.99
19594;BME280;9944;48.240;16.478;2023-12-04T09:27:15;100345.06;;;-6.98;75.17
19594;BME280;9944;48.240;16.478;2023-12-04T09:31:19;100344.84;;;-6.89;74.99
19594;BME280;9944;48.240;16.478;2023-12-04T09:35:23;100336.94;;;-6.80;75.20
19594;BME280;9944;48.240;16.478;2023-12-04T09:39:26;100330.72;;;-6.72;75.09
19594;BME280;9944;48.240;16.478;2023-12-04T09:43:32;100312.75;;;-6.72;75.01
19594;BME280;9944;48.240;16.478;2023-12-04T09:47:35;100307.59;;;-6.72;74.79
19594;BME280;9944;48.240;16.478;2023-12-04T09:51:38;100290.75;;;-6.68;75.32
19594;BME280;9944;48.240;16.478;2023-12-04T09:55:42;100285.81;;;-6.54;75.61
19594;BME280;9944;48.240;16.478;2023-12-04T09:59:47;100263.38;;;-6.44;75.44
19594;BME280;9944;48.240;16.478;2023-12-04T10:03:50;100258.91;;;-6.35;76.04
19594;BME280;9944;48.240;16.478;2023-12-04T10:07:54;100256.09;;;-6.26;75.96
19594;BME280;9944;48.240;16.478;2023-12-04T10:11:57;100255.84;;;-6.18;75.87
19594;BME280;9944;48.240;16.478;2023-12-04T10:16:02;100237.59;;;-6.09;76.30
19594;BME280;9944;48.240;16.478;2023-12-04T10:20:07;100226.28;;;-5.99;76.21
19594;BME280;9944;48.240;16.478;2023-12-04T10:24:27;100211.13;;;-5.83;76.56
19594;BME280;9944;48.240;16.478;2023-12-04T10:28:31;100193.19;;;-5.69;77.31
19594;BME280;9944;48.240;16.478;2023-12-04T10:32:39;100168.66;;;-5.51;77.43
19594;BME280;9944;48.240;16.478;2023-12-04T10:36:44;100156.03;;;-5.34;77.54
19594;BME280;9944;48.240;16.478;2023-12-04T10:40:48;100147.75;;;-5.17;77.67
19594;BME280;9944;48.240;16.478;2023-12-04T10:44:52;100140.41;;;-4.97;78.54
19594;BME280;9944;48.240;16.478;2023-12-04T10:48:57;100129.06;;;-4.73;78.73
19594;BME280;9944;48.240;16.478;2023-12-04T10:53:02;100120.66;;;-4.42;78.99
19594;BME280;9944;48.240;16.478;2023-12-04T10:57:06;100109.63;;;-4.11;79.76
19594;BME280;9944;48.240;16.478;2023-12-04T11:01:10;100102.56;;;-3.85;79.69
19594;BME280;9944;48.240;16.478;2023-12-04T11:05:18;100080.78;;;-3.61;79.70
19594;BME280;9944;48.240;16.478;2023-12-04T11:09:24;100072.47;;;-3.40;79.60
19594;BME280;9944;48.240;16.478;2023-12-04T11:13:30;100060.44;;;-3.25;79.37
19594;BME280;9944;48.240;16.478;2023-12-04T11:17:35;100040.94;;;-3.03;79.03
19594;BME280;9944;48.240;16.478;2023-12-04T11:21:42;100022.75;;;-2.90;78.73
19594;BME280;9944;48.240;16.478;2023-12-04T11:25:47;100013.22;;;-2.74;78.63
19594;BME280;9944;48.240;16.478;2023-12-04T11:29:51;100006.91;;;-2.63;78.32
19594;BME280;9944;48.240;16.478;2023-12-04T11:34:01;99986.66;;;-2.55;78.12
19594;BME280;9944;48.240;16.478;2023-12-04T11:38:06;99972.41;;;-2.47;78.06
19594;BME280;9944;48.240;16.478;2023-12-04T11:42:11;99979.13;;;-2.34;77.84
19594;BME280;9944;48.240;16.478;2023-12-04T11:46:19;99962.44;;;-2.23;77.62
19594;BME280;9944;48.240;16.478;2023-12-04T11:50:24;99956.25;;;-2.09;77.00
19594;BME280;9944;48.240;16.478;2023-12-04T11:54:29;99961.72;;;-2.03;76.56
19594;BME280;9944;48.240;16.478;2023-12-04T11:58:32;99945.06;;;-1.91;76.11
19594;BME280;9944;48.240;16.478;2023-12-04T12:02:48;99929.09;;;-1.83;76.24
19594;BME280;9944;48.240;16.478;2023-12-04T12:07:11;99932.16;;;-1.72;75.59
19594;BME280;9944;48.240;16.478;2023-12-04T12:11:16;99924.56;;;-1.69;75.29
19594;BME280;9944;48.240;16.478;2023-12-04T12:15:19;99922.41;;;-1.59;74.82
19594;BME280;9944;48.240;16.478;2023-12-04T12:19:23;99913.94;;;-1.55;74.58
19594;BME280;9944;48.240;16.478;2023-12-04T12:23:26;99914.97;;;-1.52;74.24
19594;BME280;9944;48.240;16.478;2023-12-04T12:27:32;99910.97;;;-1.45;73.87
19594;BME280;9944;48.240;16.478;2023-12-04T12:31:36;99890.41;;;-1.42;73.49
19594;BME280;9944;48.240;16.478;2023-12-04T12:35:39;99895.75;;;-1.39;73.45
19594;BME280;9944;48.240;16.478;2023-12-04T12:39:51;99889.88;;;-1.35;73.32
19594;BME280;9944;48.240;16.478;2023-12-04T12:43:57;99864.84;;;-1.34;73.58
19594;BME280;9944;48.240;16.478;2023-12-04T12:48:02;99865.22;;;-1.27;73.74
19594;BME280;9944;48.240;16.478;2023-12-04T12:52:06;99850.63;;;-1.25;73.35
19594;BME280;9944;48.240;16.478;2023-12-04T12:56:10;99827.38;;;-1.23;73.15
19594;BME280;9944;48.240;16.478;2023-12-04T13:00:17;99815.38;;;-1.21;72.96
19594;BME280;9944;48.240;16.478;2023-12-04T13:04:21;99817.16;;;-1.20;72.79
19594;BME280;9944;48.240;16.478;2023-12-04T13:08:26;99825.97;;;-1.16;72.52
19594;BME280;9944;48.240;16.478;2023-12-04T13:12:29;99824.31;;;-1.14;72.52
19594;BME280;9944;48.240;16.478;2023-12-04T13:16:34;99829.50;;;-1.14;72.53
19594;BME280;9944;48.240;16.478;2023-12-04T13:20:37;99839.84;;;-1.14;72.08
19594;BME280;9944;48.240;16.478;2023-12-04T13:24:40;99819.13;;;-1.14;71.52
19594;BME280;9944;48.240;16.478;2023-12-04T13:28:44;99820.91;;;-1.13;71.16
19594;BME280;9944;48.240;16.478;2023-12-04T13:32:52;99820.91;;;-1.13;71.30
19594;BME280;9944;48.240;16.478;2023-12-04T13:36:55;99820.91;;;-1.13;71.12
19594;BME280;9944;48.240;16.478;2023-12-04T13:41:00;99827.72;;;-1.15;71.10
19594;BME280;9944;48.240;16.478;2023-12-04T13:45:20;99807.00;;;-1.15;71.10
19594;BME280;9944;48.240;16.478;2023-12-04T13:49:25;99813.09;;;-1.15;70.87
19594;BME280;9944;48.240;16.478;2023-12-04T13:53:29;99798.34;;;-1.16;70.96
19594;BME280;9944;48.240;16.478;2023-12-04T13:57:32;99801.88;;;-1.14;70.67
19594;BME280;9944;48.240;16.478;2023-12-04T14:01:45;99795.03;;;-1.13;70.67
19594;BME280;9944;48.240;16.478;2023-12-04T14:05:51;99784.53;;;-1.16;70.43
19594;BME280;9944;48.240;16.478;2023-12-04T14:09:54;99778.50;;;-1.15;70.47
19594;BME280;9944;48.240;16.478;2023-12-04T14:13:57;99782.06;;;-1.13;70.34
19594;BME280;9944;48.240;16.478;2023-12-04T14:18:00;99780.28;;;-1.14;70.34
19594;BME280;9944;48.240;16.478;2023-12-04T14:22:06;99785.53;;;-1.13;70.67
19594;BME280;9944;48.240;16.478;2023-12-04T14:26:09;99774.16;;;-1.16;70.74
19594;BME280;9944;48.240;16.478;2023-12-04T14:30:13;99757.69;;;-1.18;70.94
19594;BME280;9944;48.240;16.478;2023-12-04T14:34:16;99739.56;;;-1.18;70.74
19594;BME280;9944;48.240;16.478;2023-12-04T14:38:21;99729.78;;;-1.24;71.24
19594;BME280;9944;48.240;16.478;2023-12-04T14:42:24;99739.28;;;-1.25;71.50
19594;BME280;9944;48.240;16.478;2023-12-04T14:46:27;99759.91;;;-1.26;71.57
19594;BME280;9944;48.240;16.478;2023-12-04T14:50:30;99751.28;;;-1.27;71.69
19594;BME280;9944;48.240;16.478;2023-12-04T14:54:35;99750.41;;;-1.27;71.94
19594;BME280;9944;48.240;16.478;2023-12-04T14:58:53;99756.31;;;-1.30;71.97
19594;BME280;9944;48.240;16.478;2023-12-04T15:03:16;99751.13;;;-1.30;71.99
19594;BME280;9944;48.240;16.478;2023-12-04T15:07:43;99742.34;;;-1.33;71.99
19594;BME280;9944;48.240;16.478;2023-12-04T15:12:12;99736.97;;;-1.38;72.20
19594;BME280;9944;48.240;16.478;2023-12-04T15:16:24;99725.66;;;-1.40;71.86
19594;BME280;9944;48.240;16.478;2023-12-04T15:20:44;99708.38;;;-1.41;71.81
19594;BME280;9944;48.240;16.478;2023-12-04T15:24:47;99716.97;;;-1.42;71.89
19594;BME280;9944;48.240;16.478;2023-12-04T15:28:52;99711.78;;;-1.42;71.79
19594;BME280;9944;48.240;16.478;2023-12-04T15:32:55;99714.16;;;-1.47;71.83
19594;BME280;9944;48.240;16.478;2023-12-04T15:37:01;99720.34;;;-1.43;72.04
19594;BME280;9944;48.240;16.478;2023-12-04T15:41:04;99708.38;;;-1.41;71.79
19594;BME280;9944;48.240;16.478;2023-12-04T15:45:09;99715.25;;;-1.41;71.73
19594;BME280;9944;48.240;16.478;2023-12-04T15:49:13;99729.09;;;-1.41;71.81
19594;BME280;9944;48.240;16.478;2023-12-04T15:53:17;99714.22;;;-1.45;71.61
19594;BME280;9944;48.240;16.478;2023-12-04T15:57:20;99725.44;;;-1.46;71.54
19594;BME280;9944;48.240;16.478;2023-12-04T16:01:24;99702.94;;;-1.47;71.65
19594;BME280;9944;48.240;16.478;2023-12-04T16:05:27;99702.16;;;-1.45;71.46
19594;BME280;9944;48.240;16.478;2023-12-04T16:09:31;99702.13;;;-1.46;71.33
19594;BME280;9944;48.240;16.478;2023-12-04T16:13:34;99736.59;;;-1.47;71.36
19594;BME280;9944;48.240;16.478;2023-12-04T16:17:39;99733.28;;;-1.43;71.60
19594;BME280;9944;48.240;16.478;2023-12-04T16:21:42;99729.97;;;-1.40;71.08
19594;BME280;9944;48.240;16.478;2023-12-04T16:25:46;99725.59;;;-1.41;70.86
19594;BME280;9944;48.240;16.478;2023-12-04T16:29:49;99711.09;;;-1.38;70.93
19594;BME280;9944;48.240;16.478;2023-12-04T16:33:54;99720.56;;;-1.38;70.56
19594;BME280;9944;48.240;16.478;2023-12-04T16:37:57;99705.09;;;-1.37;70.75
19594;BME280;9944;48.240;16.478;2023-12-04T16:42:00;99713.00;;;-1.34;70.20
19594;BME280;9944;48.240;16.478;2023-12-04T16:46:04;99688.78;;;-1.34;70.26
19594;BME280;9944;48.240;16.478;2023-12-04T16:50:09;99680.16;;;-1.35;70.16
19594;BME280;9944;48.240;16.478;2023-12-04T16:54:12;99668.00;;;-1.36;69.92
19594;BME280;9944;48.240;16.478;2023-12-04T16:58:16;99675.75;;;-1.37;69.91
19594;BME280;9944;48.240;16.478;2023-12-04T17:02:19;99680.78;;;-1.40;69.94
19594;BME280;9944;48.240;16.478;2023-12-04T17:06:23;99661.81;;;-1.39;70.01
19594;BME280;9944;48.240;16.478;2023-12-04T17:10:27;99654.97;;;-1.39;69.94
19594;BME280;9944;48.240;16.478;2023-12-04T17:14:31;99650.47;;;-1.43;69.95
19594;BME280;9944;48.240;16.478;2023-12-04T17:18:34;99652.25;;;-1.42;69.74
19594;BME280;9944;48.240;16.478;2023-12-04T17:22:40;99660.00;;;-1.42;69.59
19594;BME280;9944;48.240;16.478;2023-12-04T17:26:43;99667.78;;;-1.42;69.81
19594;BME280;9944;48.240;16.478;2023-12-04T17:30:47;99679.91;;;-1.41;70.02
19594;BME280;9944;48.240;16.478;2023-12-04T17:34:50;99674.84;;;-1.38;69.88
19594;BME280;9944;48.240;16.478;2023-12-04T17:38:55;99687.72;;;-1.39;69.99
19594;BME280;9944;48.240;16.478;2023-12-04T17:42:58;99674.84;;;-1.38;70.03
19594;BME280;9944;48.240;16.478;2023-12-04T17:47:02;99668.84;;;-1.37;70.17
19594;BME280;9944;48.240;16.478;2023-12-04T17:51:06;99674.84;;;-1.38;70.17
19594;BME280;9944;48.240;16.478;2023-12-04T17:55:11;99668.00;;;-1.36;70.31
19594;BME280;9944;48.240;16.478;2023-12-04T17:59:14;99643.75;;;-1.38;69.99
19594;BME280;9944;48.240;16.478;2023-12-04T18:03:17;99652.47;;;-1.36;70.14
19594;BME280;9944;48.240;16.478;2023-12-04T18:07:21;99645.56;;;-1.37;70.44
19594;BME280;9944;48.240;16.478;2023-12-04T18:11:26;99639.44;;;-1.39;70.10
19594;BME280;9944;48.240;16.478;2023-12-04T18:15:29;99643.69;;;-1.39;70.26
19594;BME280;9944;48.240;16.478;2023-12-04T18:19:32;99651.44;;;-1.41;70.24
19594;BME280;9944;48.240;16.478;2023-12-04T18:23:35;99645.63;;;-1.35;70.79
19594;BME280;9944;48.240;16.478;2023-12-04T18:27:42;99653.63;;;-1.29;70.77
19594;BME280;9944;48.240;16.478;2023-12-04T18:31:45;99652.75;;;-1.30;70.57
19594;BME280;9944;48.240;16.478;2023-12-04T18:35:49;99650.09;;;-1.31;70.79
19594;BME280;9944;48.240;16.478;2023-12-04T18:39:53;99650.97;;;-1.31;70.68
19594;BME280;9944;48.240;16.478;2023-12-04T18:44:00;99630.22;;;-1.32;70.71
19594;BME280;9944;48.240;16.478;2023-12-04T18:48:05;99628.44;;;-1.33;70.67
19594;BME280;9944;48.240;16.478;2023-12-04T18:52:10;99629.19;;;-1.36;70.86
19594;BME280;9944;48.240;16.478;2023-12-04T18:56:13;99619.66;;;-1.37;70.62
19594;BME280;9944;48.240;16.478;2023-12-04T19:00:18;99629.88;;;-1.40;70.58
19594;BME280;9944;48.240;16.478;2023-12-04T19:04:25;99614.34;;;-1.40;70.56
19594;BME280;9944;48.240;16.478;2023-12-04T19:08:29;99614.91;;;-1.47;70.72
19594;BME280;9944;48.240;16.478;2023-12-04T19:12:34;99599.38;;;-1.47;70.63
19594;BME280;9944;48.240;16.478;2023-12-04T19:16:38;99600.19;;;-1.48;70.59
19594;BME280;9944;48.240;16.478;2023-12-04T19:20:42;99592.44;;;-1.48;70.72
19594;BME280;9944;48.240;16.478;2023-12-04T19:24:45;99588.09;;;-1.49;70.67
19594;BME280;9944;48.240;16.478;2023-12-04T19:28:48;99582.84;;;-1.51;70.85
19594;BME280;9944;48.240;16.478;2023-12-04T19:32:53;99590.56;;;-1.52;70.99
19594;BME280;9944;48.240;16.478;2023-12-04T19:36:57;99588.72;;;-1.55;70.95
19594;BME280;9944;48.240;16.478;2023-12-04T19:41:01;99582.66;;;-1.55;71.10
19594;BME280;9944;48.240;16.478;2023-12-04T19:45:05;99593.00;;;-1.55;71.05
19594;BME280;9944;48.240;16.478;2023-12-04T19:49:10;99593.13;;;-1.52;71.09
19594;BME280;9944;48.240;16.478;2023-12-04T19:53:13;99583.56;;;-1.55;71.32
19594;BME280;9944;48.240;16.478;2023-12-04T19:57:17;99575.81;;;-1.53;71.31
19594;BME280;9944;48.240;16.478;2023-12-04T20:01:25;99573.25;;;-1.53;71.42
19594;BME280;9944;48.240;16.478;2023-12-04T20:05:29;99576.72;;;-1.53;71.58
19594;BME280;9944;48.240;16.478;2023-12-04T20:09:34;99575.81;;;-1.53;71.68
19594;BME280;9944;48.240;16.478;2023-12-04T20:13:38;99568.91;;;-1.54;71.57
19594;BME280;9944;48.240;16.478;2023-12-04T20:17:41;99561.94;;;-1.55;71.52
19594;BME280;9944;48.240;16.478;2023-12-04T20:21:47;99565.31;;;-1.58;71.76
19594;BME280;9944;48.240;16.478;2023-12-04T20:25:50;99571.44;;;-1.56;71.66
19594;BME280;9944;48.240;16.478;2023-12-04T20:29:53;99570.41;;;-1.59;71.73
19594;BME280;9944;48.240;16.478;2023-12-04T20:33:56;99568.63;;;-1.60;71.98
19594;BME280;9944;48.240;16.478;2023-12-04T20:38:01;99559.94;;;-1.63;71.75
19594;BME280;9944;48.240;16.478;2023-12-04T20:42:05;99558.28;;;-1.60;72.24
19594;BME280;9944;48.240;16.478;2023-12-04T20:46:08;99558.19;;;-1.64;72.19
19594;BME280;9944;48.240;16.478;2023-12-04T20:50:13;99557.28;;;-1.64;72.25
19594;BME280;9944;48.240;16.478;2023-12-04T20:54:18;99559.06;;;-1.63;72.08
19594;BME280;9944;48.240;16.478;2023-12-04T20:58:22;99542.66;;;-1.64;72.31
19594;BME280;9944;48.240;16.478;2023-12-04T21:02:25;99550.34;;;-1.65;72.41
19594;BME280;9944;48.240;16.478;2023-12-04T21:06:28;99555.47;;;-1.67;72.41
19594;BME280;9944;48.240;16.478;2023-12-04T21:10:33;99562.31;;;-1.67;72.45
19594;BME280;9944;48.240;16.478;2023-12-04T21:14:36;99556.28;;;-1.68;72.54
19594;BME280;9944;48.240;16.478;2023-12-04T21:18:39;99551.94;;;-1.69;72.65
19594;BME280;9944;48.240;16.478;2023-12-04T21:22:42;99551.09;;;-1.68;72.39
19594;BME280;9944;48.240;16.478;2023-12-04T21:26:47;99536.28;;;-1.72;72.48